METAR Data
IDs: Format: Raw Decoded Include TAF

Data at: 0316 UTC 25 Feb 2021

RJOB 250300Z VRB02KT 9999 FEW035 SCT/// 07/M05 Q1023